首页
METAR-TAF:

METAR-TAF

机场 :

昂古莱姆, 法国

纬度: 45-43-46N, 经度: 00-13-08E, 海拔: 132米

当前天气观测

该预报发布于18分钟前的14:30 UTC
风速8节,风向西转西南,在南转西南西之间变化
温度 13°C
湿度 72%
气压 1032 hPa
能见度10公里或以上
散云层高于2300英尺

METAR: LFBU 231430Z AUTO 24008KT 210V270 9999 SCT023 13/08 Q1032 NOSIG

时间: 15:48 (14:48 UTC)

预报

该预报发布于3小时和48分钟前的11:00 UTC
预报有效从23日的 12点(UTC)到 24日的 12点(UTC)
风速5节,风向西转西南
能见度10公里或以上
多云层高于1500英尺
短暂存在
从 23日的 12点(UTC)到 23日的 14点(UTC)
多云层高于1000英尺
几率 30% :
短暂存在
从 23日的 20点(UTC)到 24日的 06点(UTC)
多云层高于900英尺

TAF: LFBU 231100Z 2312/2412 24005KT 9999 BKN015 TEMPO 2312/2314 BKN010 PROB30 TEMPO 2320/2406 BKN009

超过4000个机场的气象观测和天气预报(METAR&TAF报告)。

可查询的气象台以黄色和红色小点在地图上表示。

将鼠标移到小点上方,可查看气象台名称。

然后点击查看天气观测和预报。

如需切换地图:点击带黑十字的绿色按钮放大地图;点击带横线的绿色按钮缩小地图;或者点击绿色箭头查看邻近地区的地图。


METAR-TAF: